createdAt,value
2019-01-25T00:00:21.595Z,100488.67
2019-01-25T00:01:25.192Z,100493.34
2019-01-25T00:02:29.262Z,100501.85
2019-01-25T00:03:32.820Z,100499.92
2019-01-25T00:04:36.450Z,100494.76
2019-01-25T00:05:40.092Z,100493.70
2019-01-25T00:06:43.726Z,100498.33
2019-01-25T00:07:47.284Z,100501.37
2019-01-25T00:08:50.959Z,100502.73
2019-01-25T00:09:58.614Z,100499.75
2019-01-25T00:11:00.002Z,100495.95
2019-01-25T00:12:03.604Z,100497.31
2019-01-25T00:13:07.327Z,100495.39
2019-01-25T00:14:11.012Z,100492.96
2019-01-25T00:15:15.259Z,100488.61
2019-01-25T00:16:18.922Z,100489.16
2019-01-25T00:17:22.608Z,100481.52
2019-01-25T00:18:26.350Z,100479.08
2019-01-25T00:19:29.919Z,100483.75
2019-01-25T00:20:33.469Z,100480.76
2019-01-25T00:21:37.127Z,100497.17
2019-01-25T00:22:40.825Z,100486.78
2019-01-25T00:23:44.413Z,100488.45
2019-01-25T00:24:48.101Z,100488.45
2019-01-25T00:25:51.774Z,100490.94
2019-01-25T00:26:55.462Z,100482.20
2019-01-25T00:27:59.074Z,100489.84
2019-01-25T00:29:02.610Z,100488.48
2019-01-25T00:30:09.648Z,100485.48
2019-01-25T00:31:13.275Z,100484.68
2019-01-25T00:32:16.992Z,100485.23
2019-01-25T00:33:20.735Z,100478.95
2019-01-25T00:34:24.331Z,100477.34
2019-01-25T00:35:28.118Z,100477.89
2019-01-25T00:36:31.709Z,100479.01
2019-01-25T00:37:35.363Z,100480.93
2019-01-25T00:38:39.075Z,100477.69
2019-01-25T00:39:42.617Z,100479.06
2019-01-25T00:40:46.156Z,100484.28
2019-01-25T00:41:49.868Z,100492.23
2019-01-25T00:42:53.641Z,100489.48
2019-01-25T00:43:57.262Z,100489.23
2019-01-25T00:45:00.825Z,100491.97
2019-01-25T00:46:04.496Z,100495.27
2019-01-25T00:47:08.249Z,100495.02
2019-01-25T00:48:11.810Z,100494.76
2019-01-25T00:49:15.396Z,100486.83
2019-01-25T00:50:21.060Z,100489.86
2019-01-25T00:51:24.606Z,100487.94
2019-01-25T00:52:28.211Z,100485.77
2019-01-25T00:53:31.936Z,100483.89
2019-01-25T00:54:35.477Z,100486.62
2019-01-25T00:55:39.258Z,100485.00
2019-01-25T00:56:42.965Z,100485.00
2019-01-25T00:57:46.916Z,100478.47
2019-01-25T00:58:52.148Z,100479.28
2019-01-25T00:59:55.782Z,100480.39
2019-01-25T01:00:59.412Z,100481.20
2019-01-25T01:02:03.134Z,100482.02
2019-01-25T01:03:07.131Z,100481.20
2019-01-25T01:04:10.927Z,100485.56
2019-01-25T01:05:15.001Z,100478.47
2019-01-25T01:06:18.692Z,100477.11
2019-01-25T01:07:22.274Z,100474.67
2019-01-25T01:08:25.978Z,100479.58
2019-01-25T01:09:29.705Z,100478.22
2019-01-25T01:10:33.356Z,100478.22
2019-01-25T01:11:36.946Z,100476.59
2019-01-25T01:12:40.786Z,100476.59
2019-01-25T01:13:44.343Z,100474.98
2019-01-25T01:14:47.885Z,100468.14
2019-01-25T01:15:51.667Z,100471.44
2019-01-25T01:16:55.278Z,100473.05
2019-01-25T01:17:59.016Z,100469.81
2019-01-25T01:19:02.668Z,100468.49
2019-01-25T01:20:09.365Z,100472.84
2019-01-25T01:21:13.098Z,100473.41
2019-01-25T01:22:16.690Z,100478.31
2019-01-25T01:23:20.232Z,100478.06
2019-01-25T01:24:23.884Z,100477.25
2019-01-25T01:25:27.632Z,100477.52
2019-01-25T01:26:31.323Z,100481.37
2019-01-25T01:27:35.065Z,100475.91
2019-01-25T01:28:38.625Z,100484.91
2019-01-25T01:29:42.241Z,100482.48
2019-01-25T01:30:45.814Z,100488.20
2019-01-25T01:31:49.342Z,100486.58
2019-01-25T01:32:53.323Z,100490.95
2019-01-25T01:33:56.920Z,100490.95
2019-01-25T01:35:00.617Z,100489.59
2019-01-25T01:36:04.471Z,100497.53
2019-01-25T01:37:08.078Z,100492.62
2019-01-25T01:38:11.757Z,100489.63
2019-01-25T01:39:15.516Z,100494.84
2019-01-25T01:40:22.146Z,100501.68
2019-01-25T01:41:25.969Z,100495.45
2019-01-25T01:42:29.588Z,100495.70
2019-01-25T01:43:33.253Z,100499.00
2019-01-25T01:44:36.990Z,100494.13
2019-01-25T01:45:40.567Z,100500.11
2019-01-25T01:46:44.281Z,100500.66
2019-01-25T01:47:48.114Z,100498.78
2019-01-25T01:48:51.699Z,100499.59
2019-01-25T01:49:55.316Z,100504.81
2019-01-25T01:50:59.005Z,100495.00
2019-01-25T01:52:02.558Z,100499.11
2019-01-25T01:53:06.175Z,100502.39
2019-01-25T01:54:09.763Z,100503.20
2019-01-25T01:55:13.934Z,100502.69
2019-01-25T01:56:17.468Z,100499.96
2019-01-25T01:57:21.269Z,100498.34
2019-01-25T01:58:24.901Z,100501.07
2019-01-25T01:59:28.545Z,100505.17
2019-01-25T02:00:32.342Z,100503.30
2019-01-25T02:01:36.034Z,100508.20
2019-01-25T02:02:39.736Z,100506.58
2019-01-25T02:03:43.337Z,100504.66
2019-01-25T02:04:47.015Z,100502.48
2019-01-25T02:05:50.829Z,100509.61
2019-01-25T02:06:54.385Z,100508.51
2019-01-25T02:07:58.074Z,100503.64
2019-01-25T02:09:01.694Z,100505.27
2019-01-25T02:10:08.631Z,100509.36
2019-01-25T02:11:12.341Z,100503.39
2019-01-25T02:12:16.046Z,100504.75
2019-01-25T02:13:19.758Z,100503.39
2019-01-25T02:14:23.437Z,100506.67
2019-01-25T02:15:27.160Z,100505.86
2019-01-25T02:16:30.793Z,100506.94
2019-01-25T02:17:34.515Z,100508.86
2019-01-25T02:18:38.112Z,100503.40
2019-01-25T02:19:41.664Z,100507.80
2019-01-25T02:20:45.365Z,100508.35
2019-01-25T02:21:49.192Z,100505.06
2019-01-25T02:22:52.863Z,100506.73
2019-01-25T02:23:56.489Z,100506.73
2019-01-25T02:25:00.073Z,100505.92
2019-01-25T02:26:03.778Z,100514.12
2019-01-25T02:27:07.361Z,100504.30
2019-01-25T02:28:10.987Z,100506.22
2019-01-25T02:29:14.574Z,100503.78
2019-01-25T02:30:23.253Z,100498.06
2019-01-25T02:31:26.877Z,100495.34
2019-01-25T02:32:30.533Z,100501.36
2019-01-25T02:33:34.240Z,100506.01
2019-01-25T02:34:37.855Z,100510.11
2019-01-25T02:35:41.546Z,100506.31
2019-01-25T02:36:45.213Z,100506.31
2019-01-25T02:37:48.952Z,100504.13
2019-01-25T02:38:52.523Z,100504.43
2019-01-25T02:39:56.193Z,100506.05
2019-01-25T02:40:59.780Z,100504.17
2019-01-25T02:42:03.477Z,100507.16
2019-01-25T02:43:09.931Z,100506.09
2019-01-25T02:44:13.512Z,100506.09
2019-01-25T02:45:17.430Z,100507.46
2019-01-25T02:46:20.971Z,100502.00
2019-01-25T02:47:24.611Z,100509.64
2019-01-25T02:48:28.204Z,100501.16
2019-01-25T02:49:31.791Z,100499.27
2019-01-25T02:50:35.342Z,100504.73
2019-01-25T02:51:38.948Z,100497.90
2019-01-25T02:52:42.739Z,100499.27
2019-01-25T02:53:46.319Z,100499.27
2019-01-25T02:54:49.860Z,100497.05
2019-01-25T02:55:53.563Z,100498.98
2019-01-25T02:56:57.152Z,100494.87
2019-01-25T02:58:00.802Z,100494.63
2019-01-25T02:59:04.631Z,100496.25
2019-01-25T03:00:22.573Z,100498.17
2019-01-25T03:01:26.154Z,100495.73
2019-01-25T03:02:29.844Z,100495.48
2019-01-25T03:03:33.461Z,100493.00
2019-01-25T03:04:37.131Z,100496.84
2019-01-25T03:05:40.704Z,100490.02
2019-01-25T03:06:44.234Z,100490.57
2019-01-25T03:07:48.058Z,100492.75
2019-01-25T03:08:51.616Z,100493.86
2019-01-25T03:09:55.238Z,100491.68
2019-01-25T03:10:58.885Z,100498.51
2019-01-25T03:12:02.550Z,100491.17
2019-01-25T03:13:06.280Z,100494.71
2019-01-25T03:14:10.058Z,100496.63
2019-01-25T03:15:16.416Z,100490.36
2019-01-25T03:16:20.092Z,100488.99
2019-01-25T03:17:23.709Z,100494.20
2019-01-25T03:18:27.317Z,100494.75
2019-01-25T03:19:31.007Z,100498.59
2019-01-25T03:20:34.548Z,100502.44
2019-01-25T03:21:38.199Z,100499.41
2019-01-25T03:22:41.790Z,100494.80
2019-01-25T03:23:45.397Z,100501.63
2019-01-25T03:24:49.085Z,100502.99
2019-01-25T03:25:52.664Z,100501.87
2019-01-25T03:26:56.199Z,100497.02
2019-01-25T03:27:59.938Z,100499.19
2019-01-25T03:29:03.677Z,100497.02
2019-01-25T03:30:13.477Z,100498.37
2019-01-25T03:31:17.163Z,100502.48
2019-01-25T03:32:20.829Z,100501.94
2019-01-25T03:33:24.449Z,100497.02
2019-01-25T03:34:28.066Z,100501.94
2019-01-25T03:35:31.779Z,100499.76
2019-01-25T03:36:35.437Z,100504.66
2019-01-25T03:37:39.029Z,100500.56
2019-01-25T03:38:42.630Z,100500.86
2019-01-25T03:39:46.307Z,100500.30
2019-01-25T03:40:54.941Z,100505.20
2019-01-25T03:41:55.271Z,100509.01
2019-01-25T03:42:58.904Z,100509.56
2019-01-25T03:44:02.626Z,100504.36
2019-01-25T03:45:08.594Z,100505.94
2019-01-25T03:46:12.363Z,100509.73
2019-01-25T03:47:15.893Z,100505.34
2019-01-25T03:48:19.428Z,100507.73
2019-01-25T03:49:23.141Z,100504.98
2019-01-25T03:50:28.905Z,100503.28
2019-01-25T03:51:32.576Z,100506.47
2019-01-25T03:52:36.166Z,100504.77
2019-01-25T03:53:39.731Z,100498.17
2019-01-25T03:54:43.365Z,100498.89
2019-01-25T03:55:46.907Z,100504.52
2019-01-25T03:56:50.525Z,100510.23
2019-01-25T03:57:54.225Z,100505.73
2019-01-25T03:58:57.767Z,100504.54
2019-01-25T04:00:01.407Z,100503.12
2019-01-25T04:01:05.310Z,100504.34
2019-01-25T04:02:08.972Z,100501.84
2019-01-25T04:03:12.700Z,100509.09
2019-01-25T04:04:16.305Z,100512.03
2019-01-25T04:05:20.086Z,100511.95
2019-01-25T04:06:23.696Z,100509.62
2019-01-25T04:07:27.385Z,100513.12
2019-01-25T04:08:30.967Z,100516.64
2019-01-25T04:09:34.672Z,100515.98
2019-01-25T04:10:38.299Z,100518.11
2019-01-25T04:11:42.049Z,100523.20
2019-01-25T04:12:45.667Z,100516.86
2019-01-25T04:13:49.340Z,100518.73
2019-01-25T04:14:52.981Z,100512.39
2019-01-25T04:15:56.587Z,100512.03
2019-01-25T04:17:00.206Z,100515.20
2019-01-25T04:18:04.119Z,100513.21
2019-01-25T04:19:07.751Z,100508.48
2019-01-25T04:20:19.244Z,100517.19
2019-01-25T04:21:22.858Z,100513.02
2019-01-25T04:22:26.509Z,100513.27
2019-01-25T04:23:30.259Z,100514.52
2019-01-25T04:24:33.795Z,100514.41
2019-01-25T04:25:37.543Z,100519.64
2019-01-25T04:26:41.159Z,100519.33
2019-01-25T04:27:44.744Z,100518.71
2019-01-25T04:28:48.423Z,100518.84
2019-01-25T04:29:51.964Z,100514.17
2019-01-25T04:30:57.035Z,100522.33
2019-01-25T04:32:00.739Z,100514.67
2019-01-25T04:33:05.199Z,100519.81
2019-01-25T04:34:08.842Z,100507.67
2019-01-25T04:35:12.733Z,100506.80
2019-01-25T04:36:16.276Z,100511.41
2019-01-25T04:37:19.825Z,100509.73
2019-01-25T04:38:23.402Z,100513.03
2019-01-25T04:39:27.010Z,100515.71
2019-01-25T04:40:30.695Z,100517.64
2019-01-25T04:41:34.242Z,100514.34
2019-01-25T04:42:37.983Z,100512.41
2019-01-25T04:43:41.673Z,100514.90
2019-01-25T04:44:45.217Z,100510.20
2019-01-25T04:45:48.853Z,100514.81
2019-01-25T04:46:52.470Z,100511.76
2019-01-25T04:47:55.985Z,100512.81
2019-01-25T04:48:59.633Z,100505.16
2019-01-25T04:50:04.902Z,100505.72
2019-01-25T04:51:08.859Z,100513.06
2019-01-25T04:52:13.441Z,100505.66
2019-01-25T04:53:17.178Z,100506.22
2019-01-25T04:54:20.826Z,100499.62
2019-01-25T04:55:27.094Z,100506.47
2019-01-25T04:56:34.832Z,100500.42
2019-01-25T04:57:38.401Z,100507.59
2019-01-25T04:58:42.027Z,100510.58
2019-01-25T04:59:45.645Z,100512.45
2019-01-25T05:00:49.375Z,100515.44
2019-01-25T05:01:53.067Z,100514.31
2019-01-25T05:02:58.533Z,100515.19
2019-01-25T05:04:02.185Z,100512.94
2019-01-25T05:05:06.447Z,100516.21
2019-01-25T05:06:10.107Z,100513.47
2019-01-25T05:07:13.680Z,100509.36
2019-01-25T05:08:18.610Z,100506.34
2019-01-25T05:09:22.106Z,100504.41
2019-01-25T05:10:25.765Z,100508.80
2019-01-25T05:11:29.335Z,100509.36
2019-01-25T05:12:32.826Z,100505.50
2019-01-25T05:13:36.393Z,100506.06
2019-01-25T05:14:40.003Z,100504.13
2019-01-25T05:15:43.831Z,100504.94
2019-01-25T05:16:47.389Z,100509.05
2019-01-25T05:17:55.530Z,100512.59
2019-01-25T05:18:59.021Z,100511.54
2019-01-25T05:20:02.585Z,100507.43
2019-01-25T05:21:06.259Z,100508.23
2019-01-25T05:22:09.888Z,100500.05
2019-01-25T05:23:13.533Z,100499.24
2019-01-25T05:24:17.031Z,100505.84
2019-01-25T05:25:22.832Z,100506.96
2019-01-25T05:26:26.361Z,100510.02
2019-01-25T05:27:29.942Z,100508.70
2019-01-25T05:28:33.480Z,100506.84
2019-01-25T05:29:51.218Z,100504.34
2019-01-25T05:30:57.082Z,100499.99
2019-01-25T05:32:03.686Z,100507.28
2019-01-25T05:33:07.171Z,100512.20
2019-01-25T05:34:10.708Z,100510.02
2019-01-25T05:35:14.346Z,100515.37
2019-01-25T05:36:17.836Z,100517.02
2019-01-25T05:37:21.497Z,100518.08
2019-01-25T05:38:25.054Z,100518.83
2019-01-25T05:39:28.905Z,100515.27
2019-01-25T05:40:32.560Z,100514.16
2019-01-25T05:41:36.049Z,100519.38
2019-01-25T05:42:39.726Z,100525.67
2019-01-25T05:43:43.815Z,100524.93
2019-01-25T05:44:47.423Z,100520.01
2019-01-25T05:45:51.636Z,100524.43
2019-01-25T05:46:55.682Z,100527.67
2019-01-25T05:47:59.207Z,100527.36
2019-01-25T05:49:02.852Z,100522.94
2019-01-25T05:50:09.761Z,100525.32
2019-01-25T05:51:13.413Z,100525.91
2019-01-25T05:52:17.560Z,100515.68
2019-01-25T05:53:21.119Z,100522.89
2019-01-25T05:54:24.604Z,100531.45
2019-01-25T05:55:28.107Z,100527.72
2019-01-25T05:56:31.681Z,100533.98
2019-01-25T05:57:35.365Z,100528.42
2019-01-25T05:58:38.954Z,100531.52
2019-01-25T05:59:42.478Z,100539.19
2019-01-25T06:00:46.048Z,100537.50
2019-01-25T06:01:49.605Z,100537.64
2019-01-25T06:02:53.289Z,100542.91
2019-01-25T06:03:56.958Z,100543.16
2019-01-25T06:05:00.503Z,100547.09
2019-01-25T06:06:04.946Z,100549.52
2019-01-25T06:07:08.590Z,100551.06
2019-01-25T06:08:33.166Z,100552.33
2019-01-25T06:09:36.845Z,100549.19
2019-01-25T06:10:40.333Z,100551.05
2019-01-25T06:11:43.848Z,100556.05
2019-01-25T06:12:51.346Z,100554.84
2019-01-25T06:13:55.024Z,100558.30
2019-01-25T06:14:58.672Z,100555.48
2019-01-25T06:16:02.507Z,100558.80
2019-01-25T06:17:06.169Z,100556.94
2019-01-25T06:18:09.918Z,100559.11
2019-01-25T06:19:13.550Z,100556.73
2019-01-25T06:20:17.274Z,100556.31
2019-01-25T06:21:20.786Z,100567.43
2019-01-25T06:22:24.346Z,100562.33
2019-01-25T06:23:27.967Z,100554.77
2019-01-25T06:24:31.453Z,100554.91
2019-01-25T06:25:34.996Z,100549.80
2019-01-25T06:26:40.222Z,100550.97
2019-01-25T06:27:43.708Z,100553.85
2019-01-25T06:28:50.223Z,100551.25
2019-01-25T06:29:53.783Z,100555.71
2019-01-25T06:30:57.359Z,100561.55
2019-01-25T06:32:00.959Z,100560.88
2019-01-25T06:33:04.751Z,100563.05
2019-01-25T06:34:08.256Z,100554.64
2019-01-25T06:35:12.609Z,100557.67
2019-01-25T06:36:16.117Z,100565.48
2019-01-25T06:37:19.730Z,100564.04
2019-01-25T06:38:23.342Z,100567.28
2019-01-25T06:39:26.905Z,100566.37
2019-01-25T06:40:30.421Z,100564.02
2019-01-25T06:41:33.994Z,100569.12
2019-01-25T06:42:37.678Z,100566.52
2019-01-25T06:43:41.275Z,100563.88
2019-01-25T06:44:44.820Z,100563.73
2019-01-25T06:45:49.910Z,100562.11
2019-01-25T06:46:53.617Z,100560.35
2019-01-25T06:47:57.215Z,100562.98
2019-01-25T06:49:00.953Z,100560.09
2019-01-25T06:50:09.693Z,100563.22
2019-01-25T06:51:13.306Z,100568.39
2019-01-25T06:52:16.866Z,100565.33
2019-01-25T06:53:20.500Z,100569.80
2019-01-25T06:54:24.137Z,100564.06
2019-01-25T06:55:27.817Z,100569.23
2019-01-25T06:56:31.444Z,100566.77
2019-01-25T06:57:36.727Z,100566.96
2019-01-25T06:58:41.882Z,100565.09
2019-01-25T06:59:45.398Z,100566.86
2019-01-25T07:00:55.332Z,100568.23
2019-01-25T07:02:00.582Z,100565.73
2019-01-25T07:03:04.398Z,100564.84
2019-01-25T07:04:07.954Z,100565.73
2019-01-25T07:05:11.680Z,100570.09
2019-01-25T07:06:15.338Z,100564.92
2019-01-25T07:07:20.567Z,100567.98
2019-01-25T07:08:24.163Z,100564.04
2019-01-25T07:09:27.739Z,100563.16
2019-01-25T07:10:31.312Z,100568.50
2019-01-25T07:11:51.672Z,100572.44
2019-01-25T07:14:20.081Z,100566.70
2019-01-25T07:14:27.588Z,100568.06
2019-01-25T07:15:37.614Z,100566.45
2019-01-25T07:16:43.790Z,100566.20
2019-01-25T07:17:47.436Z,100563.46
2019-01-25T07:18:51.258Z,100568.50
2019-01-25T07:19:54.742Z,100566.39
2019-01-25T07:20:58.309Z,100564.78
2019-01-25T07:22:01.932Z,100570.83
2019-01-25T07:23:05.671Z,100568.16
2019-01-25T07:24:09.208Z,100571.54
2019-01-25T07:25:14.972Z,100570.73
2019-01-25T07:26:18.554Z,100575.27
2019-01-25T07:27:22.130Z,100570.83
2019-01-25T07:28:25.611Z,100568.33
2019-01-25T07:29:29.201Z,100571.56
2019-01-25T07:30:32.881Z,100575.93
2019-01-25T07:31:36.557Z,100576.00
2019-01-25T07:32:40.308Z,100581.32
2019-01-25T07:33:43.875Z,100576.82
2019-01-25T07:34:47.579Z,100580.34
2019-01-25T07:35:51.142Z,100583.83
2019-01-25T07:36:54.776Z,100578.55
2019-01-25T07:37:58.425Z,100586.14
2019-01-25T07:39:04.971Z,100587.16
2019-01-25T07:40:09.926Z,100586.16
2019-01-25T07:41:13.497Z,100589.11
2019-01-25T07:42:17.061Z,100588.14
2019-01-25T07:43:20.681Z,100583.66
2019-01-25T07:44:24.452Z,100583.51
2019-01-25T07:45:28.129Z,100582.58
2019-01-25T07:46:31.624Z,100582.14
2019-01-25T07:47:35.193Z,100583.36
2019-01-25T07:48:38.782Z,100589.77
2019-01-25T07:49:42.433Z,100580.61
2019-01-25T07:50:46.211Z,100582.06
2019-01-25T07:51:50.030Z,100590.41
2019-01-25T07:52:53.568Z,100585.86
2019-01-25T07:53:57.237Z,100584.32
2019-01-25T07:55:01.142Z,100585.50
2019-01-25T07:56:05.009Z,100585.86
2019-01-25T07:57:08.745Z,100585.08
2019-01-25T07:58:12.789Z,100581.33
2019-01-25T07:59:16.407Z,100580.27
2019-01-25T08:00:20.126Z,100571.00
2019-01-25T08:01:23.721Z,100575.35
2019-01-25T08:02:27.403Z,100569.56
2019-01-25T08:03:31.093Z,100571.75
2019-01-25T08:04:34.611Z,100581.08
2019-01-25T08:05:38.371Z,100577.84
2019-01-25T08:06:42.040Z,100583.38
2019-01-25T08:07:45.536Z,100586.73
2019-01-25T08:08:49.052Z,100591.94
2019-01-25T08:09:52.584Z,100584.03
2019-01-25T08:10:56.141Z,100591.50
2019-01-25T08:12:07.012Z,100594.59
2019-01-25T08:13:05.192Z,100598.20
2019-01-25T08:14:08.889Z,100596.29
2019-01-25T08:15:18.153Z,100591.98
2019-01-25T08:16:23.240Z,100591.73
2019-01-25T08:17:26.757Z,100598.33
2019-01-25T08:18:30.345Z,100595.33
2019-01-25T08:19:34.014Z,100592.85
2019-01-25T08:20:37.593Z,100595.03
2019-01-25T08:21:41.296Z,100597.10
2019-01-25T08:22:45.008Z,100595.70
2019-01-25T08:23:48.503Z,100593.73
2019-01-25T08:24:52.036Z,100593.73
2019-01-25T08:25:55.638Z,100593.92
2019-01-25T08:26:59.311Z,100593.12
2019-01-25T08:28:02.948Z,100593.92
2019-01-25T08:29:06.503Z,100589.31
2019-01-25T08:30:16.269Z,100585.21
2019-01-25T08:31:19.800Z,100594.03
2019-01-25T08:32:24.101Z,100596.52
2019-01-25T08:33:27.737Z,100597.39
2019-01-25T08:34:31.297Z,100601.20
2019-01-25T08:35:34.896Z,100593.05
2019-01-25T08:36:38.605Z,100598.83
2019-01-25T08:37:42.201Z,100598.58
2019-01-25T08:38:45.675Z,100602.98
2019-01-25T08:39:49.200Z,100605.73
2019-01-25T08:40:54.501Z,100603.23
2019-01-25T08:41:58.067Z,100602.94
2019-01-25T08:43:01.656Z,100599.89
2019-01-25T08:44:05.428Z,100599.08
2019-01-25T08:45:16.909Z,100599.08
2019-01-25T08:46:20.397Z,100599.08
2019-01-25T08:47:23.919Z,100603.49
2019-01-25T08:48:29.156Z,100596.40
2019-01-25T08:49:32.883Z,100598.88
2019-01-25T08:50:36.509Z,100604.91
2019-01-25T08:51:40.211Z,100604.66
2019-01-25T08:52:43.874Z,100608.82
2019-01-25T08:53:47.533Z,100614.04
2019-01-25T08:54:51.112Z,100612.42
2019-01-25T08:55:54.605Z,100612.16
2019-01-25T08:56:58.175Z,100613.81
2019-01-25T08:58:01.783Z,100609.45
2019-01-25T08:59:05.532Z,100608.95
2019-01-25T09:00:12.471Z,100610.87
2019-01-25T09:01:16.094Z,100610.31
2019-01-25T09:02:19.625Z,100602.09
2019-01-25T09:03:23.149Z,100603.72
2019-01-25T09:04:26.703Z,100602.05
2019-01-25T09:05:30.307Z,100601.23
2019-01-25T09:06:33.802Z,100602.86
2019-01-25T09:07:37.404Z,100603.98
2019-01-25T09:08:41.040Z,100610.56
2019-01-25T09:09:44.548Z,100607.83
2019-01-25T09:10:48.180Z,100608.38
2019-01-25T09:11:51.738Z,100604.58
2019-01-25T09:12:55.271Z,100604.33
2019-01-25T09:13:58.862Z,100606.56
2019-01-25T09:15:02.503Z,100604.38
2019-01-25T09:16:06.077Z,100597.59
2019-01-25T09:17:09.710Z,100603.63
2019-01-25T09:18:13.392Z,100606.66
2019-01-25T09:19:16.996Z,100609.14
2019-01-25T09:20:21.941Z,100608.86
2019-01-25T09:21:25.653Z,100607.77
2019-01-25T09:22:29.217Z,100609.95
2019-01-25T09:23:32.896Z,100614.88
2019-01-25T09:24:36.434Z,100614.02
2019-01-25T09:25:40.020Z,100618.12
2019-01-25T09:26:43.686Z,100614.82
2019-01-25T09:27:47.885Z,100618.38
2019-01-25T09:28:51.379Z,100615.38
2019-01-25T09:29:55.077Z,100614.02
2019-01-25T09:30:58.655Z,100611.02
2019-01-25T09:32:02.294Z,100613.50
2019-01-25T09:33:06.111Z,100615.42
2019-01-25T09:34:09.611Z,100609.14
2019-01-25T09:35:13.569Z,100608.86
2019-01-25T09:36:17.145Z,100601.51
2019-01-25T09:37:20.637Z,100605.36
2019-01-25T09:38:24.178Z,100603.48
2019-01-25T09:39:27.764Z,100599.13
2019-01-25T09:40:31.271Z,100606.27
2019-01-25T09:41:34.896Z,100609.27
2019-01-25T09:42:38.447Z,100613.63
2019-01-25T09:43:41.959Z,100616.56
2019-01-25T09:44:45.503Z,100614.08
2019-01-25T09:45:49.133Z,100616.49
2019-01-25T09:46:53.556Z,100610.21
2019-01-25T09:47:57.178Z,100616.81
2019-01-25T09:49:00.700Z,100623.89
2019-01-25T09:50:06.989Z,100625.26
2019-01-25T09:51:10.568Z,100629.67
2019-01-25T09:52:14.133Z,100624.75
2019-01-25T09:53:17.745Z,100629.94
2019-01-25T09:54:21.314Z,100632.98
2019-01-25T09:55:25.992Z,100629.73
2019-01-25T09:56:29.580Z,100634.14
2019-01-25T09:57:33.131Z,100636.32
2019-01-25T09:58:38.095Z,100636.63
2019-01-25T09:59:42.390Z,100634.70
2019-01-25T10:00:58.069Z,100638.30
2019-01-25T10:02:01.609Z,100632.01
2019-01-25T10:03:05.274Z,100632.83
2019-01-25T10:04:08.806Z,100636.32
2019-01-25T10:05:12.417Z,100635.72
2019-01-25T10:06:16.093Z,100638.45
2019-01-25T10:07:19.763Z,100637.89
2019-01-25T10:08:23.348Z,100638.20
2019-01-25T10:09:26.960Z,100640.63
2019-01-25T10:10:30.689Z,100634.86
2019-01-25T10:11:34.172Z,100634.60
2019-01-25T10:12:43.316Z,100627.00
2019-01-25T10:13:42.991Z,100636.27
2019-01-25T10:14:46.549Z,100630.03
2019-01-25T10:15:50.237Z,100635.25
2019-01-25T10:16:53.729Z,100631.45
2019-01-25T10:17:57.314Z,100627.65
2019-01-25T10:19:00.909Z,100629.58
2019-01-25T10:20:07.589Z,100623.30
2019-01-25T10:21:11.205Z,100621.67
2019-01-25T10:22:14.751Z,100621.37
2019-01-25T10:23:18.237Z,100626.28
2019-01-25T10:24:21.816Z,100618.84
2019-01-25T10:25:25.454Z,100616.05
2019-01-25T10:26:29.033Z,100617.12
2019-01-25T10:27:32.565Z,100609.97
2019-01-25T10:28:36.160Z,100613.52
2019-01-25T10:29:39.687Z,100605.04
2019-01-25T10:30:43.277Z,100601.77
2019-01-25T10:31:46.970Z,100607.80
2019-01-25T10:32:50.548Z,100603.19
2019-01-25T10:33:54.113Z,100604.30
2019-01-25T10:34:57.679Z,100605.16
2019-01-25T10:36:01.352Z,100608.20
2019-01-25T10:37:05.015Z,100604.45
2019-01-25T10:38:08.607Z,100607.13
2019-01-25T10:39:12.313Z,100606.32
2019-01-25T10:40:18.255Z,100603.33
2019-01-25T10:41:23.270Z,100600.59
2019-01-25T10:42:26.912Z,100596.44
2019-01-25T10:43:30.572Z,100601.31
2019-01-25T10:44:34.143Z,100603.19
2019-01-25T10:45:40.275Z,100597.91
2019-01-25T10:46:43.810Z,100596.53
2019-01-25T10:47:47.356Z,100594.59
2019-01-25T10:48:50.836Z,100597.84
2019-01-25T10:49:54.353Z,100588.27
2019-01-25T10:50:57.982Z,100587.96
2019-01-25T10:52:01.577Z,100590.39
2019-01-25T10:53:06.695Z,100592.87
2019-01-25T10:54:10.298Z,100586.90
2019-01-25T10:55:14.738Z,100577.93
2019-01-25T10:56:18.331Z,100583.96
2019-01-25T10:57:21.940Z,100591.36
2019-01-25T10:58:25.555Z,100583.98
2019-01-25T10:59:29.088Z,100587.33
2019-01-25T11:00:32.634Z,100586.56
2019-01-25T11:01:36.221Z,100589.30
2019-01-25T11:02:39.777Z,100591.98
2019-01-25T11:03:43.397Z,100591.73
2019-01-25T11:04:46.981Z,100587.58
2019-01-25T11:05:50.546Z,100585.65
2019-01-25T11:06:54.139Z,100589.45
2019-01-25T11:07:57.791Z,100583.73
2019-01-25T11:09:01.305Z,100582.66
2019-01-25T11:10:06.561Z,100579.63
2019-01-25T11:11:10.042Z,100587.02
2019-01-25T11:12:13.586Z,100579.16
2019-01-25T11:13:17.099Z,100579.47
2019-01-25T11:14:20.614Z,100578.66
2019-01-25T11:15:25.522Z,100580.33
2019-01-25T11:16:29.086Z,100578.70
2019-01-25T11:17:36.481Z,100572.73
2019-01-25T11:18:37.998Z,100568.09
2019-01-25T11:19:41.573Z,100567.00
2019-01-25T11:20:45.154Z,100562.90
2019-01-25T11:21:48.735Z,100562.84
2019-01-25T11:22:52.764Z,100567.41
2019-01-25T11:23:56.392Z,100573.44
2019-01-25T11:24:59.981Z,100571.46
2019-01-25T11:26:03.596Z,100562.19
2019-01-25T11:27:07.124Z,100569.84
2019-01-25T11:28:10.583Z,100568.47
2019-01-25T11:29:14.156Z,100558.64
2019-01-25T11:30:18.170Z,100563.86
2019-01-25T11:31:21.653Z,100562.49
2019-01-25T11:32:25.317Z,100558.95
2019-01-25T11:33:28.939Z,100556.52
2019-01-25T11:34:33.176Z,100559.30
2019-01-25T11:35:36.731Z,100557.94
2019-01-25T11:36:40.348Z,100554.39
2019-01-25T11:37:43.937Z,100551.42
2019-01-25T11:38:47.541Z,100552.23
2019-01-25T11:39:51.052Z,100554.39
2019-01-25T11:40:54.566Z,100553.78
2019-01-25T11:41:58.210Z,100555.95
2019-01-25T11:43:08.548Z,100558.70
2019-01-25T11:44:07.043Z,100554.95
2019-01-25T11:45:13.382Z,100557.12
2019-01-25T11:46:17.023Z,100547.92
2019-01-25T11:47:20.600Z,100552.89
2019-01-25T11:48:24.113Z,100550.55
2019-01-25T11:49:27.643Z,100547.08
2019-01-25T11:50:31.313Z,100548.59
2019-01-25T11:51:34.914Z,100548.95
2019-01-25T11:52:38.422Z,100550.11
2019-01-25T11:53:41.995Z,100549.30
2019-01-25T11:54:45.499Z,100544.18
2019-01-25T11:55:49.023Z,100542.30
2019-01-25T11:56:52.544Z,100537.95
2019-01-25T11:57:56.062Z,100535.22
2019-01-25T11:58:59.643Z,100537.95
2019-01-25T12:00:03.769Z,100536.28
2019-01-25T12:01:07.552Z,100535.47
2019-01-25T12:02:11.231Z,100535.42
2019-01-25T12:03:14.807Z,100539.13
2019-01-25T12:04:18.375Z,100534.68
2019-01-25T12:05:23.523Z,100524.89
2019-01-25T12:06:27.259Z,100526.78
2019-01-25T12:07:30.770Z,100522.95
2019-01-25T12:08:34.405Z,100512.59
2019-01-25T12:09:37.979Z,100511.36
2019-01-25T12:10:42.614Z,100515.14